Station: EBSP - 21/02/2020 20:21Z (il y a 16 minutes)
EBSP 212020Z AUTO 22011KT 200V270 CAVOK 03/M00 Q1026
Vent du 220º - 11 kt (vent de direction variable de 200º à 270º)
Visibilité > 10 km et plafond haut ou pas de nuages significatifs
Température: +03ºC - Point de rosée: -00ºC - QNH: 1026 hPa